Time;durP1;ratioP1;P1;durP2;ratioP2;P2;SDS_P1;SDS_P2;PMS_P1;PMS_P2;Temp;Humidity;BMP_temperature;BMP_pressure;BME280_temperature;BME280_humidity;BME280_pressure;Samples;Min_cycle;Max_cycle;Signal;HPM_P1;HPM_P2
2021/03/22 00:01:31;;;;;;;14.80;6.17;;;;;;;;;;778458;179;919401;-67
2021/03/22 00:03:56;;;;;;;8.17;5.00;;;;;;;;;;773299;179;1020863;-68
2021/03/22 00:06:22;;;;;;;9.00;5.07;;;;;;;;;;780355;179;918299;-67
2021/03/22 00:08:48;;;;;;;9.60;5.90;;;;;;;;;;776617;179;918974;-67
2021/03/22 00:11:14;;;;;;;6.67;4.70;;;;;;;;;;774984;179;919140;-67
2021/03/22 00:13:40;;;;;;;11.93;6.60;;;;;;;;;;779700;179;918903;-68
2021/03/22 00:16:06;;;;;;;12.40;6.33;;;;;;;;;;777892;179;937392;-66
2021/03/22 00:18:32;;;;;;;11.80;5.70;;;;;;;;;;764300;179;918894;-72
2021/03/22 00:20:58;;;;;;;9.23;5.47;;;;;;;;;;779334;179;919392;-65
2021/03/22 00:23:24;;;;;;;8.60;4.77;;;;;;;;;;783176;179;919338;-66
2021/03/22 00:25:50;;;;;;;8.10;5.20;;;;;;;;;;769839;179;1830959;-66
2021/03/22 00:28:15;;;;;;;13.88;6.03;;;;;;;;;;776354;176;919029;-66
2021/03/22 00:30:41;;;;;;;10.70;6.50;;;;;;;;;;782331;178;918533;-66
2021/03/22 00:33:07;;;;;;;11.87;6.60;;;;;;;;;;780646;178;940759;-66
2021/03/22 00:35:33;;;;;;;14.90;7.15;;;;;;;;;;776611;178;1021099;-65
2021/03/22 00:37:59;;;;;;;15.87;7.33;;;;;;;;;;784770;178;917197;-67
2021/03/22 00:40:25;;;;;;;12.17;8.53;;;;;;;;;;777017;178;929599;-66
2021/03/22 00:42:50;;;;;;;12.70;7.90;;;;;;;;;;780931;178;923274;-66
2021/03/22 00:45:16;;;;;;;15.17;7.97;;;;;;;;;;776728;178;909553;-65
2021/03/22 00:47:42;;;;;;;13.70;8.60;;;;;;;;;;778764;177;1021585;-66
2021/03/22 00:50:09;;;;;;;14.33;7.93;;;;;;;;;;776157;179;915300;-66
2021/03/22 00:52:35;;;;;;;16.93;8.83;;;;;;;;;;777631;179;929544;-65
2021/03/22 00:55:00;;;;;;;14.15;9.00;;;;;;;;;;780911;179;915817;-66
2021/03/22 00:57:26;;;;;;;18.57;9.40;;;;;;;;;;778643;179;940218;-65
2021/03/22 00:59:52;;;;;;;14.20;9.20;;;;;;;;;;779873;179;918546;-65
2021/03/22 01:02:18;;;;;;;14.07;8.97;;;;;;;;;;779826;179;919711;-64
2021/03/22 01:04:44;;;;;;;19.45;9.95;;;;;;;;;;776366;179;920256;-65
2021/03/22 01:07:10;;;;;;;13.17;8.50;;;;;;;;;;743609;179;6049950;-66
2021/03/22 01:09:35;;;;;;;15.23;9.67;;;;;;;;;;779812;179;918590;-65
2021/03/22 01:12:01;;;;;;;13.00;7.23;;;;;;;;;;775924;179;919472;-65
2021/03/22 01:14:27;;;;;;;17.30;10.33;;;;;;;;;;778673;179;917280;-66
2021/03/22 01:16:53;;;;;;;13.37;9.20;;;;;;;;;;777498;179;921459;-66
2021/03/22 01:19:20;;;;;;;16.07;6.43;;;;;;;;;;771302;182;919350;-66
2021/03/22 01:21:46;;;;;;;19.52;11.02;;;;;;;;;;774683;179;920222;-66
2021/03/22 01:24:12;;;;;;;18.77;10.07;;;;;;;;;;777146;179;1018177;-65
2021/03/22 01:26:38;;;;;;;19.67;10.00;;;;;;;;;;775332;179;1843117;-65
2021/03/22 01:29:04;;;;;;;18.33;9.90;;;;;;;;;;780279;179;919317;-64
2021/03/22 01:31:30;;;;;;;23.93;11.03;;;;;;;;;;775703;179;933503;-65
2021/03/22 01:33:56;;;;;;;17.30;9.90;;;;;;;;;;783661;179;917997;-66
2021/03/22 01:36:24;;;;;;;18.83;11.50;;;;;;;;;;776221;179;918999;-65
2021/03/22 01:38:50;;;;;;;25.90;11.53;;;;;;;;;;777577;179;919327;-66
2021/03/22 01:41:35;;;;;;;15.83;9.83;;;;;;;;;;780213;177;1022230;-66
2021/03/22 01:44:12;;;;;;;19.33;11.90;;;;;;;;;;765803;179;918974;-66
2021/03/22 01:46:38;;;;;;;17.97;9.83;;;;;;;;;;776440;179;920155;-65
2021/03/22 01:49:04;;;;;;;22.30;12.13;;;;;;;;;;768223;182;916532;-65
2021/03/22 01:51:29;;;;;;;19.53;10.30;;;;;;;;;;778609;178;916282;-66
2021/03/22 01:53:55;;;;;;;22.13;10.60;;;;;;;;;;763914;178;3131405;-66
2021/03/22 01:56:31;;;;;;;19.53;12.03;;;;;;;;;;784015;178;912784;-65
2021/03/22 01:58:56;;;;;;;17.87;11.30;;;;;;;;;;776621;179;915454;-65
2021/03/22 02:01:22;;;;;;;22.58;13.15;;;;;;;;;;779752;179;918413;-66
2021/03/22 02:03:48;;;;;;;23.40;12.37;;;;;;;;;;771572;179;1058676;-68
2021/03/22 02:06:14;;;;;;;28.93;12.97;;;;;;;;;;783030;179;919361;-66
2021/03/22 02:08:40;;;;;;;18.07;10.90;;;;;;;;;;774603;179;920535;-66
2021/03/22 02:11:06;;;;;;;20.37;11.63;;;;;;;;;;776052;179;1021225;-66
2021/03/22 02:13:32;;;;;;;20.20;12.40;;;;;;;;;;779312;179;1104765;-66
2021/03/22 02:15:59;;;;;;;16.10;10.60;;;;;;;;;;778663;179;918236;-67
2021/03/22 02:18:25;;;;;;;24.40;11.63;;;;;;;;;;774412;179;919560;-66
2021/03/22 02:20:56;;;;;;;19.80;11.70;;;;;;;;;;780683;179;918292;-67
2021/03/22 02:23:43;;;;;;;27.23;12.52;;;;;;;;;;770145;182;919154;-67
2021/03/22 02:26:15;;;;;;;25.80;13.90;;;;;;;;;;760064;183;918917;-67
2021/03/22 02:28:43;;;;;;;20.33;13.53;;;;;;;;;;773996;179;919313;-66
2021/03/22 02:31:15;;;;;;;21.00;12.97;;;;;;;;;;778105;179;919080;-66
2021/03/22 02:33:51;;;;;;;29.80;14.18;;;;;;;;;;773888;179;1157029;-69
2021/03/22 02:36:17;;;;;;;17.40;10.57;;;;;;;;;;769493;182;918750;-66
2021/03/22 02:38:53;;;;;;;30.30;13.33;;;;;;;;;;774200;182;919658;-68
2021/03/22 02:41:18;;;;;;;20.30;12.80;;;;;;;;;;775883;179;1453528;-67
2021/03/22 02:43:44;;;;;;;21.20;12.63;;;;;;;;;;777348;179;919611;-66
2021/03/22 02:46:11;;;;;;;26.30;13.57;;;;;;;;;;779365;179;918949;-65
2021/03/22 02:48:37;;;;;;;22.43;12.57;;;;;;;;;;769699;182;919421;-66
2021/03/22 02:51:08;;;;;;;24.67;13.87;;;;;;;;;;778441;177;919129;-67
2021/03/22 02:53:35;;;;;;;26.10;13.50;;;;;;;;;;777747;178;919359;-66
2021/03/22 02:56:19;;;;;;;24.73;12.60;;;;;;;;;;781256;178;915404;-66
2021/03/22 02:58:44;;;;;;;22.30;13.27;;;;;;;;;;777510;178;920342;-67
2021/03/22 03:01:11;;;;;;;20.25;12.02;;;;;;;;;;777076;178;989132;-67
2021/03/22 03:03:36;;;;;;;25.00;12.50;;;;;;;;;;779962;178;921628;-67
2021/03/22 03:06:02;;;;;;;23.80;13.10;;;;;;;;;;772631;178;928163;-65
2021/03/22 03:08:29;;;;;;;23.53;13.63;;;;;;;;;;782462;175;915959;-65
2021/03/22 03:10:55;;;;;;;23.90;14.60;;;;;;;;;;777248;179;916171;-66
2021/03/22 03:13:21;;;;;;;26.57;14.33;;;;;;;;;;778738;179;917466;-66
2021/03/22 03:15:46;;;;;;;22.40;13.40;;;;;;;;;;781562;179;913356;-66
2021/03/22 03:18:12;;;;;;;24.80;14.10;;;;;;;;;;777129;179;920657;-66
2021/03/22 03:20:38;;;;;;;19.73;12.52;;;;;;;;;;775387;179;1044501;-65
2021/03/22 03:23:04;;;;;;;23.10;12.80;;;;;;;;;;784219;179;935772;-65
2021/03/22 03:25:30;;;;;;;19.37;12.07;;;;;;;;;;765097;182;913747;-65
2021/03/22 03:27:56;;;;;;;22.15;13.55;;;;;;;;;;775310;179;914037;-65
2021/03/22 03:30:23;;;;;;;23.50;13.17;;;;;;;;;;782918;179;899750;-66
2021/03/22 03:32:49;;;;;;;24.27;14.10;;;;;;;;;;773974;179;912311;-66
2021/03/22 03:35:15;;;;;;;28.10;14.23;;;;;;;;;;777903;179;878212;-65
2021/03/22 03:37:41;;;;;;;25.27;13.93;;;;;;;;;;773624;179;915961;-65
2021/03/22 03:40:07;;;;;;;16.87;10.50;;;;;;;;;;783451;179;919294;-65
2021/03/22 03:42:33;;;;;;;20.43;11.50;;;;;;;;;;772183;179;1961092;-65
2021/03/22 03:44:59;;;;;;;17.40;8.93;;;;;;;;;;776918;179;1017505;-65
2021/03/22 03:47:25;;;;;;;18.98;9.63;;;;;;;;;;781319;179;912359;-66
2021/03/22 03:49:50;;;;;;;17.17;9.53;;;;;;;;;;779579;179;916159;-65
2021/03/22 03:52:16;;;;;;;17.23;10.00;;;;;;;;;;775915;179;915877;-66
2021/03/22 03:54:42;;;;;;;18.63;8.33;;;;;;;;;;781557;179;917311;-66
2021/03/22 03:57:08;;;;;;;9.73;5.80;;;;;;;;;;775653;179;915938;-66
2021/03/22 03:59:34;;;;;;;16.80;9.70;;;;;;;;;;776812;179;916511;-66
2021/03/22 04:02:01;;;;;;;15.93;9.73;;;;;;;;;;771844;179;1194681;-66
2021/03/22 04:04:27;;;;;;;12.23;7.73;;;;;;;;;;771323;181;916588;-67
2021/03/22 04:06:53;;;;;;;13.17;8.30;;;;;;;;;;780137;178;915289;-67
2021/03/22 04:09:20;;;;;;;14.50;8.40;;;;;;;;;;775064;178;920367;-67
2021/03/22 04:11:44;;;;;;;11.83;7.53;;;;;;;;;;785184;178;917590;-67
2021/03/22 04:14:14;;;;;;;12.83;7.17;;;;;;;;;;777038;178;917600;-69
2021/03/22 04:16:40;;;;;;;17.93;10.33;;;;;;;;;;778977;178;920759;-69
2021/03/22 04:19:06;;;;;;;17.73;9.77;;;;;;;;;;781231;178;919107;-69
2021/03/22 04:21:31;;;;;;;14.60;8.20;;;;;;;;;;777448;179;918374;-69
2021/03/22 04:23:57;;;;;;;12.90;7.87;;;;;;;;;;746368;179;6037439;-69
2021/03/22 04:26:23;;;;;;;14.13;8.43;;;;;;;;;;776431;179;917606;-69
2021/03/22 04:28:49;;;;;;;19.80;9.33;;;;;;;;;;768471;182;918935;-70
2021/03/22 04:31:15;;;;;;;19.00;9.00;;;;;;;;;;778194;179;920738;-69
2021/03/22 04:33:41;;;;;;;16.07;10.20;;;;;;;;;;775959;179;919481;-69
2021/03/22 04:36:07;;;;;;;19.07;8.63;;;;;;;;;;781856;179;918547;-69
2021/03/22 04:38:32;;;;;;;19.37;10.10;;;;;;;;;;774540;179;920171;-75
2021/03/22 04:40:58;;;;;;;14.53;9.37;;;;;;;;;;776568;179;919156;-70
2021/03/22 04:43:24;;;;;;;16.48;8.90;;;;;;;;;;783696;179;915822;-69
2021/03/22 04:45:50;;;;;;;18.80;9.80;;;;;;;;;;776663;179;914210;-70
2021/03/22 04:48:16;;;;;;;19.60;10.15;;;;;;;;;;777413;179;917419;-71
2021/03/22 04:50:42;;;;;;;19.73;10.60;;;;;;;;;;778584;179;1104955;-70
2021/03/22 04:53:07;;;;;;;19.87;10.10;;;;;;;;;;778161;179;921995;-71
2021/03/22 04:55:33;;;;;;;23.00;10.30;;;;;;;;;;776998;179;918933;-70
2021/03/22 04:57:59;;;;;;;20.80;11.00;;;;;;;;;;775469;179;919225;-70
2021/03/22 05:00:26;;;;;;;30.07;9.67;;;;;;;;;;780651;179;920397;-71
2021/03/22 05:02:52;;;;;;;23.20;13.27;;;;;;;;;;777006;179;937801;-70
2021/03/22 05:05:18;;;;;;;38.57;18.23;;;;;;;;;;774709;179;919520;-70
2021/03/22 05:07:43;;;;;;;27.13;13.40;;;;;;;;;;781538;179;933325;-69
2021/03/22 05:10:10;;;;;;;22.27;11.00;;;;;;;;;;777826;179;1040892;-71
2021/03/22 05:12:36;;;;;;;27.52;12.37;;;;;;;;;;776200;179;1018878;-71
2021/03/22 05:15:01;;;;;;;20.10;11.17;;;;;;;;;;776776;179;920118;-71
2021/03/22 05:17:27;;;;;;;22.10;13.00;;;;;;;;;;780091;178;919250;-71
2021/03/22 05:19:53;;;;;;;18.30;11.80;;;;;;;;;;780019;178;919678;-72
2021/03/22 05:22:19;;;;;;;23.25;10.07;;;;;;;;;;776319;178;920229;-70
2021/03/22 05:24:45;;;;;;;25.23;11.10;;;;;;;;;;780873;175;918582;-71
2021/03/22 05:27:11;;;;;;;45.93;26.43;;;;;;;;;;778460;178;919249;-71
2021/03/22 05:29:36;;;;;;;21.90;12.43;;;;;;;;;;778438;178;918718;-71
2021/03/22 05:32:02;;;;;;;23.43;14.80;;;;;;;;;;776829;178;1633417;-71
2021/03/22 05:34:28;;;;;;;18.87;12.10;;;;;;;;;;778980;179;918810;-70
2021/03/22 05:36:54;;;;;;;12.27;6.80;;;;;;;;;;775635;179;919986;-70
2021/03/22 05:39:20;;;;;;;7.10;5.20;;;;;;;;;;783289;179;921872;-71
2021/03/22 05:41:49;;;;;;;15.95;8.73;;;;;;;;;;775095;179;918623;-70
2021/03/22 05:44:16;;;;;;;18.57;7.23;;;;;;;;;;771337;179;1814103;-70
2021/03/22 05:46:46;;;;;;;18.03;9.20;;;;;;;;;;773103;179;920759;-69
2021/03/22 05:49:28;;;;;;;15.17;8.93;;;;;;;;;;782968;179;1019396;-71
2021/03/22 05:51:54;;;;;;;18.63;8.30;;;;;;;;;;770543;179;918966;-71
2021/03/22 05:54:36;;;;;;;18.37;6.83;;;;;;;;;;771726;179;920567;-72
2021/03/22 05:57:05;;;;;;;25.67;12.47;;;;;;;;;;770914;179;941746;-71
2021/03/22 05:59:39;;;;;;;19.40;7.17;;;;;;;;;;777317;179;915758;-72
2021/03/22 06:02:20;;;;;;;11.13;7.53;;;;;;;;;;774887;179;943248;-72
2021/03/22 06:04:46;;;;;;;12.63;5.85;;;;;;;;;;774544;179;913165;-71
2021/03/22 06:07:12;;;;;;;13.03;8.00;;;;;;;;;;779278;179;915789;-70
2021/03/22 06:09:43;;;;;;;13.67;8.00;;;;;;;;;;780348;179;914279;-70
2021/03/22 06:12:15;;;;;;;17.13;7.70;;;;;;;;;;779496;179;626782;-70
2021/03/22 06:14:41;;;;;;;34.10;17.40;;;;;;;;;;777153;179;910330;-70
2021/03/22 06:17:11;;;;;;;14.13;8.50;;;;;;;;;;782664;179;918563;-69
2021/03/22 06:19:38;;;;;;;21.90;12.50;;;;;;;;;;776414;179;921979;-69
2021/03/22 06:22:03;;;;;;;14.00;9.30;;;;;;;;;;774069;179;1503480;-70
2021/03/22 06:24:29;;;;;;;16.70;8.17;;;;;;;;;;778547;179;918917;-69
2021/03/22 06:26:55;;;;;;;19.33;7.70;;;;;;;;;;780692;178;919446;-69
2021/03/22 06:29:22;;;;;;;9.15;6.50;;;;;;;;;;775896;178;1224224;-68
2021/03/22 06:31:48;;;;;;;11.90;7.83;;;;;;;;;;778322;178;919227;-68
2021/03/22 06:34:14;;;;;;;14.20;7.80;;;;;;;;;;779574;175;918929;-69
2021/03/22 06:36:39;;;;;;;37.30;16.20;;;;;;;;;;777931;178;935673;-69
2021/03/22 06:39:05;;;;;;;10.40;6.90;;;;;;;;;;777192;178;1087518;-70
2021/03/22 06:41:46;;;;;;;14.23;9.30;;;;;;;;;;784570;178;635463;-70
2021/03/22 06:44:12;;;;;;;13.00;9.07;;;;;;;;;;775318;182;632911;-69
2021/03/22 06:46:53;;;;;;;18.80;9.77;;;;;;;;;;782987;179;642903;-70
2021/03/22 06:49:20;;;;;;;32.53;15.20;;;;;;;;;;781020;179;653212;-69
2021/03/22 06:51:56;;;;;;;25.97;12.37;;;;;;;;;;782607;179;633105;-68
2021/03/22 06:54:37;;;;;;;15.90;9.00;;;;;;;;;;779419;179;636967;-69
2021/03/22 06:57:02;;;;;;;18.40;9.93;;;;;;;;;;782063;179;647175;-69
2021/03/22 06:59:28;;;;;;;15.00;8.37;;;;;;;;;;778653;179;964223;-70
2021/03/22 07:01:54;;;;;;;13.07;5.90;;;;;;;;;;779121;179;636777;-69
2021/03/22 07:04:23;;;;;;;19.23;8.37;;;;;;;;;;778006;179;625271;-69
2021/03/22 07:06:54;;;;;;;13.43;6.40;;;;;;;;;;784420;179;620367;-74
2021/03/22 07:09:27;;;;;;;16.17;8.03;;;;;;;;;;779311;179;635007;-72
2021/03/22 07:11:53;;;;;;;17.17;8.10;;;;;;;;;;780358;179;626867;-70
2021/03/22 07:14:27;;;;;;;23.23;12.40;;;;;;;;;;781478;179;623559;-70
2021/03/22 07:16:59;;;;;;;18.50;9.27;;;;;;;;;;780576;179;645403;-69
2021/03/22 07:19:25;;;;;;;39.83;16.33;;;;;;;;;;772256;182;653541;-69
2021/03/22 07:21:52;;;;;;;46.80;17.67;;;;;;;;;;778142;179;620446;-70
2021/03/22 07:24:17;;;;;;;16.13;8.53;;;;;;;;;;782629;179;626648;-68
2021/03/22 07:26:50;;;;;;;10.73;5.03;;;;;;;;;;781477;179;671638;-67
2021/03/22 07:29:19;;;;;;;27.27;13.30;;;;;;;;;;777733;182;618520;-68
2021/03/22 07:32:00;;;;;;;9.13;4.73;;;;;;;;;;777363;179;632580;-67
2021/03/22 07:34:36;;;;;;;14.57;8.37;;;;;;;;;;781131;179;635228;-66
2021/03/22 07:37:18;;;;;;;12.50;5.93;;;;;;;;;;780023;177;652566;-67
2021/03/22 07:39:45;;;;;;;7.40;4.30;;;;;;;;;;778831;178;637863;-67
2021/03/22 07:42:21;;;;;;;12.90;5.43;;;;;;;;;;780238;178;636403;-66
2021/03/22 07:45:01;;;;;;;19.13;5.97;;;;;;;;;;786513;178;629686;-67
2021/03/22 07:47:41;;;;;;;5.80;3.80;;;;;;;;;;775148;182;668111;-66
2021/03/22 07:50:22;;;;;;;17.43;5.90;;;;;;;;;;774927;182;919214;-65
2021/03/22 07:52:49;;;;;;;14.00;3.63;;;;;;;;;;761012;183;914435;-69
2021/03/22 07:55:29;;;;;;;10.93;4.00;;;;;;;;;;778501;178;916041;-69
2021/03/22 07:57:59;;;;;;;9.20;3.63;;;;;;;;;;771391;179;916300;-68
2021/03/22 08:00:31;;;;;;;7.53;4.50;;;;;;;;;;779673;179;915819;-68
2021/03/22 08:03:01;;;;;;;7.83;4.63;;;;;;;;;;776650;179;914771;-66
2021/03/22 08:05:28;;;;;;;4.53;2.73;;;;;;;;;;781556;179;918731;-65
2021/03/22 08:07:57;;;;;;;9.90;4.17;;;;;;;;;;765721;179;3070074;-64
2021/03/22 08:10:27;;;;;;;14.87;7.07;;;;;;;;;;779575;179;919687;-65
2021/03/22 08:12:56;;;;;;;6.63;3.90;;;;;;;;;;771609;179;918416;-65
2021/03/22 08:15:26;;;;;;;8.67;4.53;;;;;;;;;;781123;179;919481;-66
2021/03/22 08:18:07;;;;;;;15.70;4.17;;;;;;;;;;775935;179;919629;-64
2021/03/22 08:20:33;;;;;;;12.57;4.00;;;;;;;;;;770534;179;920916;-66
2021/03/22 08:23:14;;;;;;;21.23;3.77;;;;;;;;;;773993;179;929269;-68
2021/03/22 08:25:40;;;;;;;4.77;2.97;;;;;;;;;;762835;180;919924;-66
2021/03/22 08:28:12;;;;;;;16.17;6.17;;;;;;;;;;767720;180;918363;-63
2021/03/22 08:30:38;;;;;;;12.90;6.10;;;;;;;;;;760702;183;918995;-63
2021/03/22 08:33:14;;;;;;;9.93;5.73;;;;;;;;;;774042;179;918659;-64
2021/03/22 08:35:40;;;;;;;8.90;4.27;;;;;;;;;;776736;179;919673;-63
2021/03/22 08:38:05;;;;;;;7.30;3.17;;;;;;;;;;773300;179;921741;-64
2021/03/22 08:40:47;;;;;;;5.10;2.77;;;;;;;;;;782098;179;919035;-64
2021/03/22 08:43:14;;;;;;;10.90;6.20;;;;;;;;;;770489;182;919229;-64
2021/03/22 08:45:39;;;;;;;14.30;6.37;;;;;;;;;;779179;179;919677;-66
2021/03/22 08:48:10;;;;;;;11.53;5.40;;;;;;;;;;776855;179;919667;-66
2021/03/22 08:50:36;;;;;;;10.90;6.30;;;;;;;;;;783226;178;919561;-66
2021/03/22 08:53:08;;;;;;;12.43;4.90;;;;;;;;;;779544;178;919993;-65
2021/03/22 08:55:41;;;;;;;4.40;2.90;;;;;;;;;;776619;178;908796;-65
2021/03/22 08:58:07;;;;;;;15.50;6.43;;;;;;;;;;777432;178;918736;-65
2021/03/22 09:00:37;;;;;;;17.73;5.60;;;;;;;;;;782994;178;918252;-65
2021/03/22 09:03:18;;;;;;;9.40;4.67;;;;;;;;;;778990;178;929255;-64
2021/03/22 09:05:43;;;;;;;12.20;6.90;;;;;;;;;;770148;178;919012;-64
2021/03/22 09:08:15;;;;;;;37.93;16.20;;;;;;;;;;777084;178;953876;-63
2021/03/22 09:10:41;;;;;;;26.33;12.05;;;;;;;;;;774861;179;919311;-64
2021/03/22 09:13:06;;;;;;;42.07;18.90;;;;;;;;;;783075;179;918540;-64
2021/03/22 09:15:32;;;;;;;49.27;22.30;;;;;;;;;;771434;179;1191058;-64
2021/03/22 09:18:10;;;;;;;40.80;17.70;;;;;;;;;;777339;179;919650;-65
2021/03/22 09:20:42;;;;;;;18.53;11.40;;;;;;;;;;775068;179;920779;-63
2021/03/22 09:23:07;;;;;;;9.17;4.40;;;;;;;;;;784143;179;919182;-65
2021/03/22 09:25:39;;;;;;;12.10;5.97;;;;;;;;;;773445;179;920142;-63
2021/03/22 09:28:11;;;;;;;10.50;6.27;;;;;;;;;;771699;179;1808807;-66
2021/03/22 09:30:37;;;;;;;141.70;48.37;;;;;;;;;;774383;179;919782;-66
2021/03/22 09:33:04;;;;;;;9.83;5.90;;;;;;;;;;783534;179;921687;-66
2021/03/22 09:35:29;;;;;;;12.03;5.60;;;;;;;;;;776394;179;914670;-66
2021/03/22 09:37:56;;;;;;;9.73;5.40;;;;;;;;;;775129;179;920354;-64
2021/03/22 09:40:35;;;;;;;11.10;6.90;;;;;;;;;;779414;179;919704;-65
2021/03/22 09:43:14;;;;;;;15.60;6.43;;;;;;;;;;772411;181;920451;-66
2021/03/22 09:45:45;;;;;;;120.40;38.30;;;;;;;;;;771052;182;918531;-65
2021/03/22 09:48:19;;;;;;;75.93;32.23;;;;;;;;;;777962;179;917156;-66
2021/03/22 09:50:44;;;;;;;19.00;9.87;;;;;;;;;;773979;179;918980;-64
2021/03/22 09:53:12;;;;;;;10.47;7.57;;;;;;;;;;776877;179;921829;-63
2021/03/22 09:55:45;;;;;;;17.83;9.33;;;;;;;;;;765989;180;921108;-65
2021/03/22 09:58:17;;;;;;;8.70;5.23;;;;;;;;;;776533;179;917042;-63
2021/03/22 10:00:59;;;;;;;14.00;5.93;;;;;;;;;;780775;178;918177;-63
2021/03/22 10:03:41;;;;;;;7.30;5.10;;;;;;;;;;782419;178;955276;-65
2021/03/22 10:06:28;;;;;;;7.80;5.20;;;;;;;;;;779484;178;936347;-65
2021/03/22 10:08:54;;;;;;;9.30;5.07;;;;;;;;;;779410;179;918110;-65
2021/03/22 10:11:21;;;;;;;9.35;4.60;;;;;;;;;;778592;178;914296;-66
2021/03/22 10:13:47;;;;;;;17.33;7.87;;;;;;;;;;777944;178;1010407;-67
2021/03/22 10:16:13;;;;;;;20.33;13.00;;;;;;;;;;772144;182;911171;-64
2021/03/22 10:18:39;;;;;;;37.93;19.87;;;;;;;;;;761999;179;3770147;-65
2021/03/22 10:21:07;;;;;;;13.18;8.07;;;;;;;;;;774889;179;919679;-65
2021/03/22 10:23:33;;;;;;;8.50;5.00;;;;;;;;;;780796;179;918515;-65
2021/03/22 10:26:01;;;;;;;15.00;7.33;;;;;;;;;;776384;179;919243;-65
2021/03/22 10:28:26;;;;;;;14.07;7.32;;;;;;;;;;774534;179;930700;-64
2021/03/22 10:30:52;;;;;;;12.47;9.03;;;;;;;;;;783427;179;918807;-63
2021/03/22 10:33:18;;;;;;;19.70;9.27;;;;;;;;;;774879;179;920071;-64
2021/03/22 10:35:46;;;;;;;19.23;10.90;;;;;;;;;;776271;179;919250;-64
2021/03/22 10:38:14;;;;;;;11.80;6.63;;;;;;;;;;748411;179;5946482;-64
2021/03/22 10:40:39;;;;;;;13.70;7.67;;;;;;;;;;778868;179;917023;-64
2021/03/22 10:43:05;;;;;;;14.93;9.23;;;;;;;;;;773648;179;950548;-65
2021/03/22 10:45:46;;;;;;;11.67;7.60;;;;;;;;;;776495;179;923062;-64
2021/03/22 10:48:18;;;;;;;14.03;6.87;;;;;;;;;;774252;179;914150;-64
2021/03/22 10:50:44;;;;;;;10.93;7.03;;;;;;;;;;783517;179;915143;-64
2021/03/22 10:53:11;;;;;;;11.53;7.10;;;;;;;;;;775948;179;916361;-64
2021/03/22 10:55:37;;;;;;;11.30;6.10;;;;;;;;;;777766;179;914160;-64
2021/03/22 10:58:09;;;;;;;11.30;5.30;;;;;;;;;;779324;179;915888;-66
2021/03/22 11:00:43;;;;;;;11.10;6.53;;;;;;;;;;783657;179;919411;-63
2021/03/22 11:03:09;;;;;;;10.97;6.47;;;;;;;;;;774371;182;920487;-65
2021/03/22 11:05:37;;;;;;;9.50;4.23;;;;;;;;;;775593;179;1011832;-65
2021/03/22 11:08:03;;;;;;;11.57;5.93;;;;;;;;;;777528;179;927089;-64
2021/03/22 11:10:28;;;;;;;13.57;7.60;;;;;;;;;;779979;179;916475;-66
2021/03/22 11:12:53;;;;;;;9.87;7.30;;;;;;;;;;780210;178;921476;-65
2021/03/22 11:15:19;;;;;;;11.20;6.37;;;;;;;;;;775189;178;919822;-64
2021/03/22 11:17:45;;;;;;;10.77;6.97;;;;;;;;;;784906;178;882499;-64
2021/03/22 11:20:13;;;;;;;20.17;10.73;;;;;;;;;;777636;178;905450;-65
2021/03/22 11:22:38;;;;;;;10.47;4.63;;;;;;;;;;778836;178;933088;-64
2021/03/22 11:25:07;;;;;;;30.23;16.03;;;;;;;;;;781339;178;915689;-65
2021/03/22 11:27:46;;;;;;;91.67;43.13;;;;;;;;;;774135;180;919313;-64
2021/03/22 11:30:13;;;;;;;19.73;10.47;;;;;;;;;;775557;179;919038;-65
2021/03/22 11:32:39;;;;;;;25.13;11.90;;;;;;;;;;777980;179;919379;-65
2021/03/22 11:35:10;;;;;;;148.68;49.00;;;;;;;;;;774811;179;922716;-65
2021/03/22 11:37:36;;;;;;;15.97;7.83;;;;;;;;;;784467;178;918720;-64
2021/03/22 11:40:20;;;;;;;7.60;6.23;;;;;;;;;;774310;179;919139;-64
2021/03/22 11:42:50;;;;;;;11.03;5.83;;;;;;;;;;778380;179;919384;-64
2021/03/22 11:45:22;;;;;;;16.13;7.07;;;;;;;;;;765862;179;2699188;-64
2021/03/22 11:47:48;;;;;;;9.93;5.70;;;;;;;;;;777267;179;919354;-64
2021/03/22 11:50:20;;;;;;;9.40;6.20;;;;;;;;;;777958;179;918594;-69
2021/03/22 11:52:46;;;;;;;17.00;13.13;;;;;;;;;;779055;179;919801;-64
2021/03/22 11:55:12;;;;;;;7.70;4.90;;;;;;;;;;776363;179;919706;-64
2021/03/22 11:57:38;;;;;;;13.53;7.47;;;;;;;;;;772347;179;941751;-63
2021/03/22 12:00:04;;;;;;;15.57;6.90;;;;;;;;;;783121;179;921669;-64
2021/03/22 12:02:32;;;;;;;31.23;14.97;;;;;;;;;;775706;179;934484;-64
2021/03/22 12:04:58;;;;;;;15.73;8.47;;;;;;;;;;778614;179;918562;-65
2021/03/22 12:07:45;;;;;;;9.90;5.57;;;;;;;;;;780068;179;919212;-64
2021/03/22 12:10:14;;;;;;;13.20;4.77;;;;;;;;;;774752;182;941392;-65
2021/03/22 12:12:40;;;;;;;16.27;4.83;;;;;;;;;;769966;182;918538;-64
2021/03/22 12:15:06;;;;;;;11.03;5.30;;;;;;;;;;777794;179;919230;-64
2021/03/22 12:17:32;;;;;;;9.87;4.80;;;;;;;;;;773940;179;918646;-63
2021/03/22 12:19:58;;;;;;;34.83;15.33;;;;;;;;;;782350;179;919540;-64
2021/03/22 12:22:24;;;;;;;11.32;5.70;;;;;;;;;;776094;179;919403;-63
2021/03/22 12:24:50;;;;;;;8.90;5.60;;;;;;;;;;780671;177;919361;-64
2021/03/22 12:27:15;;;;;;;13.73;7.03;;;;;;;;;;778351;178;1691483;-63
2021/03/22 12:29:41;;;;;;;20.40;10.50;;;;;;;;;;778740;178;919164;-64
2021/03/22 12:32:08;;;;;;;16.10;6.90;;;;;;;;;;777082;178;917155;-63
2021/03/22 12:34:33;;;;;;;15.17;5.70;;;;;;;;;;782795;178;918504;-62
2021/03/22 12:37:00;;;;;;;11.48;5.12;;;;;;;;;;776725;178;920380;-63
2021/03/22 12:39:27;;;;;;;11.27;6.37;;;;;;;;;;779248;178;920168;-65
2021/03/22 12:41:53;;;;;;;5.17;4.00;;;;;;;;;;776857;178;920420;-64
2021/03/22 12:44:19;;;;;;;6.53;4.10;;;;;;;;;;780072;179;918613;-65
2021/03/22 12:46:44;;;;;;;7.43;4.63;;;;;;;;;;777654;179;919266;-64
2021/03/22 12:49:12;;;;;;;9.30;4.57;;;;;;;;;;775905;179;919483;-65
2021/03/22 12:51:38;;;;;;;9.57;6.00;;;;;;;;;;784815;179;918664;-64
2021/03/22 12:54:04;;;;;;;6.17;4.20;;;;;;;;;;775249;179;919116;-64
2021/03/22 12:56:30;;;;;;;7.97;4.32;;;;;;;;;;778927;179;919098;-64
2021/03/22 12:58:56;;;;;;;11.30;4.80;;;;;;;;;;780425;179;917212;-65
2021/03/22 13:01:21;;;;;;;6.80;3.40;;;;;;;;;;779105;179;924421;-66
2021/03/22 13:03:47;;;;;;;8.60;4.50;;;;;;;;;;777207;179;919140;-64
2021/03/22 13:06:13;;;;;;;10.65;4.65;;;;;;;;;;776161;179;919051;-64
2021/03/22 13:08:39;;;;;;;24.13;10.33;;;;;;;;;;777767;175;1716496;-64
2021/03/22 13:11:06;;;;;;;10.88;4.70;;;;;;;;;;776643;179;919549;-65
2021/03/22 13:13:31;;;;;;;8.30;3.30;;;;;;;;;;773070;179;919188;-64
2021/03/22 13:15:57;;;;;;;13.77;7.50;;;;;;;;;;784307;179;919240;-63
2021/03/22 13:18:22;;;;;;;7.30;5.00;;;;;;;;;;777878;179;932830;-64
2021/03/22 13:20:48;;;;;;;7.40;4.17;;;;;;;;;;776260;179;899397;-64
2021/03/22 13:23:15;;;;;;;25.07;10.80;;;;;;;;;;782975;179;919039;-64
2021/03/22 13:25:40;;;;;;;79.17;28.57;;;;;;;;;;776419;179;919588;-63
2021/03/22 13:28:09;;;;;;;12.13;4.07;;;;;;;;;;778126;179;919128;-64
2021/03/22 13:30:35;;;;;;;8.63;4.80;;;;;;;;;;772981;179;1021849;-64
2021/03/22 13:33:00;;;;;;;6.83;3.40;;;;;;;;;;771021;182;919233;-64
2021/03/22 13:35:26;;;;;;;5.40;2.83;;;;;;;;;;777852;179;919047;-64
2021/03/22 13:37:52;;;;;;;4.33;2.70;;;;;;;;;;776918;178;922516;-63
2021/03/22 13:40:18;;;;;;;8.87;3.70;;;;;;;;;;780556;179;919132;-62
2021/03/22 13:42:44;;;;;;;6.63;3.90;;;;;;;;;;779164;178;921889;-63
2021/03/22 13:45:11;;;;;;;9.70;3.45;;;;;;;;;;771960;178;1495089;-64
2021/03/22 13:47:37;;;;;;;4.60;3.20;;;;;;;;;;783492;178;917149;-63
2021/03/22 13:50:03;;;;;;;6.10;3.10;;;;;;;;;;777279;178;923139;-63
2021/03/22 13:52:29;;;;;;;4.17;2.00;;;;;;;;;;780062;178;920828;-64
2021/03/22 13:55:00;;;;;;;5.70;2.30;;;;;;;;;;784780;178;629200;-64
2021/03/22 13:57:26;;;;;;;4.03;2.17;;;;;;;;;;777666;179;917420;-63
2021/03/22 13:59:52;;;;;;;8.67;2.57;;;;;;;;;;777212;179;915588;-67
2021/03/22 14:02:18;;;;;;;5.87;2.20;;;;;;;;;;776798;179;912903;-63
2021/03/22 14:04:44;;;;;;;4.13;2.07;;;;;;;;;;783904;179;897390;-63
2021/03/22 14:07:10;;;;;;;5.50;1.90;;;;;;;;;;776047;179;919262;-67
2021/03/22 14:09:36;;;;;;;8.30;3.10;;;;;;;;;;780670;179;919454;-64
2021/03/22 14:12:01;;;;;;;4.40;2.97;;;;;;;;;;782073;179;919621;-64
2021/03/22 14:14:27;;;;;;;8.00;2.80;;;;;;;;;;778742;179;919264;-64
2021/03/22 14:16:53;;;;;;;3.17;1.43;;;;;;;;;;770882;179;919610;-64
2021/03/22 14:19:19;;;;;;;2.97;1.75;;;;;;;;;;777371;179;919610;-62